sensor_id;sensor_type;location;lat;lon;timestamp;temperature;humidity
73360;DHT22;63092;43.582;19.528;2022-11-13T00:00:31;7.40;94.50
73360;DHT22;63092;43.582;19.528;2022-11-13T00:02:57;7.40;94.60
73360;DHT22;63092;43.582;19.528;2022-11-13T00:05:23;7.30;94.70
73360;DHT22;63092;43.582;19.528;2022-11-13T00:07:49;7.30;94.90
73360;DHT22;63092;43.582;19.528;2022-11-13T00:10:15;7.30;94.90
73360;DHT22;63092;43.582;19.528;2022-11-13T00:12:41;7.20;94.90
73360;DHT22;63092;43.582;19.528;2022-11-13T00:15:06;7.10;95.00
73360;DHT22;63092;43.582;19.528;2022-11-13T00:17:32;7.10;95.20
73360;DHT22;63092;43.582;19.528;2022-11-13T00:19:58;7.10;95.20
73360;DHT22;63092;43.582;19.528;2022-11-13T00:22:24;7.10;95.20
73360;DHT22;63092;43.582;19.528;2022-11-13T00:24:49;7.10;95.30
73360;DHT22;63092;43.582;19.528;2022-11-13T00:27:15;7.00;95.30
73360;DHT22;63092;43.582;19.528;2022-11-13T00:29:41;7.10;95.10
73360;DHT22;63092;43.582;19.528;2022-11-13T00:32:06;7.10;95.30
73360;DHT22;63092;43.582;19.528;2022-11-13T00:34:32;7.00;95.30
73360;DHT22;63092;43.582;19.528;2022-11-13T00:36:58;7.00;95.20
73360;DHT22;63092;43.582;19.528;2022-11-13T00:39:24;6.90;95.40
73360;DHT22;63092;43.582;19.528;2022-11-13T00:41:49;6.80;95.50
73360;DHT22;63092;43.582;19.528;2022-11-13T00:44:15;6.90;95.50
73360;DHT22;63092;43.582;19.528;2022-11-13T00:46:41;6.90;95.20
73360;DHT22;63092;43.582;19.528;2022-11-13T00:49:06;6.90;95.00
73360;DHT22;63092;43.582;19.528;2022-11-13T00:51:32;6.90;94.80
73360;DHT22;63092;43.582;19.528;2022-11-13T00:53:58;6.90;94.90
73360;DHT22;63092;43.582;19.528;2022-11-13T00:56:24;6.90;94.90
73360;DHT22;63092;43.582;19.528;2022-11-13T00:58:49;6.90;94.90
73360;DHT22;63092;43.582;19.528;2022-11-13T01:01:17;6.80;94.60
73360;DHT22;63092;43.582;19.528;2022-11-13T01:03:44;6.80;94.60
73360;DHT22;63092;43.582;19.528;2022-11-13T01:06:15;6.80;94.90
73360;DHT22;63092;43.582;19.528;2022-11-13T01:08:42;6.70;95.20
73360;DHT22;63092;43.582;19.528;2022-11-13T01:11:13;6.60;95.50
73360;DHT22;63092;43.582;19.528;2022-11-13T01:13:41;6.60;95.40
73360;DHT22;63092;43.582;19.528;2022-11-13T01:16:08;6.60;95.30
73360;DHT22;63092;43.582;19.528;2022-11-13T01:18:35;6.60;95.50
73360;DHT22;63092;43.582;19.528;2022-11-13T01:21:35;6.50;95.40
73360;DHT22;63092;43.582;19.528;2022-11-13T01:23:55;6.60;95.50
73360;DHT22;63092;43.582;19.528;2022-11-13T01:26:24;6.50;95.40
73360;DHT22;63092;43.582;19.528;2022-11-13T01:28:51;6.50;95.40
73360;DHT22;63092;43.582;19.528;2022-11-13T01:31:20;6.40;95.50
73360;DHT22;63092;43.582;19.528;2022-11-13T01:33:46;6.40;95.40
73360;DHT22;63092;43.582;19.528;2022-11-13T01:36:23;6.40;95.40
73360;DHT22;63092;43.582;19.528;2022-11-13T01:38:50;6.40;95.40
73360;DHT22;63092;43.582;19.528;2022-11-13T01:41:18;6.40;95.10
73360;DHT22;63092;43.582;19.528;2022-11-13T01:43:45;6.20;95.70
73360;DHT22;63092;43.582;19.528;2022-11-13T01:48:52;5.90;96.20
73360;DHT22;63092;43.582;19.528;2022-11-13T01:54:16;6.00;96.50
73360;DHT22;63092;43.582;19.528;2022-11-13T01:56:43;5.90;96.50
73360;DHT22;63092;43.582;19.528;2022-11-13T01:59:13;5.70;96.80
73360;DHT22;63092;43.582;19.528;2022-11-13T02:01:40;5.70;96.90
73360;DHT22;63092;43.582;19.528;2022-11-13T02:04:06;5.70;97.00
73360;DHT22;63092;43.582;19.528;2022-11-13T02:06:47;5.70;97.10
73360;DHT22;63092;43.582;19.528;2022-11-13T02:09:16;5.70;97.10
73360;DHT22;63092;43.582;19.528;2022-11-13T02:11:43;5.80;96.80
73360;DHT22;63092;43.582;19.528;2022-11-13T02:14:10;5.80;96.60
73360;DHT22;63092;43.582;19.528;2022-11-13T02:16:40;5.80;96.70
73360;DHT22;63092;43.582;19.528;2022-11-13T02:19:14;5.80;96.70
73360;DHT22;63092;43.582;19.528;2022-11-13T02:24:42;5.70;96.70
73360;DHT22;63092;43.582;19.528;2022-11-13T02:29:44;5.60;96.90
73360;DHT22;63092;43.582;19.528;2022-11-13T02:32:09;5.50;96.90
73360;DHT22;63092;43.582;19.528;2022-11-13T02:34:35;5.50;97.00
73360;DHT22;63092;43.582;19.528;2022-11-13T02:37:01;5.60;96.90
73360;DHT22;63092;43.582;19.528;2022-11-13T02:39:26;5.50;96.90
73360;DHT22;63092;43.582;19.528;2022-11-13T02:41:52;5.60;96.90
73360;DHT22;63092;43.582;19.528;2022-11-13T02:44:18;5.60;96.70
73360;DHT22;63092;43.582;19.528;2022-11-13T02:46:43;5.70;96.60
73360;DHT22;63092;43.582;19.528;2022-11-13T02:49:09;5.70;96.60
73360;DHT22;63092;43.582;19.528;2022-11-13T02:51:35;5.70;96.60
73360;DHT22;63092;43.582;19.528;2022-11-13T02:54:01;5.70;96.70
73360;DHT22;63092;43.582;19.528;2022-11-13T02:56:26;5.70;96.60
73360;DHT22;63092;43.582;19.528;2022-11-13T02:58:52;5.70;96.60
73360;DHT22;63092;43.582;19.528;2022-11-13T03:01:18;5.70;96.70
73360;DHT22;63092;43.582;19.528;2022-11-13T03:03:43;5.60;96.50
73360;DHT22;63092;43.582;19.528;2022-11-13T03:06:09;5.70;96.50
73360;DHT22;63092;43.582;19.528;2022-11-13T03:08:35;5.70;96.40
73360;DHT22;63092;43.582;19.528;2022-11-13T03:11:06;5.80;96.20
73360;DHT22;63092;43.582;19.528;2022-11-13T03:13:32;5.80;96.10
73360;DHT22;63092;43.582;19.528;2022-11-13T03:16:08;5.80;95.80
73360;DHT22;63092;43.582;19.528;2022-11-13T03:18:34;5.70;95.90
73360;DHT22;63092;43.582;19.528;2022-11-13T03:21:05;5.70;96.00
73360;DHT22;63092;43.582;19.528;2022-11-13T03:23:31;5.70;96.30
73360;DHT22;63092;43.582;19.528;2022-11-13T03:26:02;5.70;96.30
73360;DHT22;63092;43.582;19.528;2022-11-13T03:28:28;5.70;96.30
73360;DHT22;63092;43.582;19.528;2022-11-13T03:30:54;5.60;96.50
73360;DHT22;63092;43.582;19.528;2022-11-13T03:33:19;5.50;97.00
73360;DHT22;63092;43.582;19.528;2022-11-13T03:35:46;5.50;96.90
73360;DHT22;63092;43.582;19.528;2022-11-13T03:38:12;5.50;96.90
73360;DHT22;63092;43.582;19.528;2022-11-13T03:40:38;5.60;96.80
73360;DHT22;63092;43.582;19.528;2022-11-13T03:43:03;5.50;96.90
73360;DHT22;63092;43.582;19.528;2022-11-13T03:45:29;5.60;96.70
73360;DHT22;63092;43.582;19.528;2022-11-13T03:47:55;5.60;96.70
73360;DHT22;63092;43.582;19.528;2022-11-13T03:50:20;5.60;96.80
73360;DHT22;63092;43.582;19.528;2022-11-13T03:52:46;5.60;96.60
73360;DHT22;63092;43.582;19.528;2022-11-13T03:55:12;5.60;96.60
73360;DHT22;63092;43.582;19.528;2022-11-13T03:57:37;5.60;96.80
73360;DHT22;63092;43.582;19.528;2022-11-13T04:00:04;5.70;96.70
73360;DHT22;63092;43.582;19.528;2022-11-13T04:02:30;5.70;96.70
73360;DHT22;63092;43.582;19.528;2022-11-13T04:04:56;5.80;96.50
73360;DHT22;63092;43.582;19.528;2022-11-13T04:07:22;5.70;96.50
73360;DHT22;63092;43.582;19.528;2022-11-13T04:09:47;5.70;96.50
73360;DHT22;63092;43.582;19.528;2022-11-13T04:12:13;5.80;96.60
73360;DHT22;63092;43.582;19.528;2022-11-13T04:14:39;5.70;96.60
73360;DHT22;63092;43.582;19.528;2022-11-13T04:17:04;5.40;97.10
73360;DHT22;63092;43.582;19.528;2022-11-13T04:19:30;5.50;97.00
73360;DHT22;63092;43.582;19.528;2022-11-13T04:21:56;5.50;97.00
73360;DHT22;63092;43.582;19.528;2022-11-13T04:24:21;5.50;97.00
73360;DHT22;63092;43.582;19.528;2022-11-13T04:26:47;5.40;97.00
73360;DHT22;63092;43.582;19.528;2022-11-13T04:29:13;5.20;97.40
73360;DHT22;63092;43.582;19.528;2022-11-13T04:31:38;5.10;97.90
73360;DHT22;63092;43.582;19.528;2022-11-13T04:34:04;5.00;97.80
73360;DHT22;63092;43.582;19.528;2022-11-13T04:36:30;5.00;98.00
73360;DHT22;63092;43.582;19.528;2022-11-13T04:38:55;4.70;98.70
73360;DHT22;63092;43.582;19.528;2022-11-13T04:41:21;4.80;98.50
73360;DHT22;63092;43.582;19.528;2022-11-13T04:44:06;4.90;98.30
73360;DHT22;63092;43.582;19.528;2022-11-13T04:46:31;4.80;98.40
73360;DHT22;63092;43.582;19.528;2022-11-13T04:48:57;4.90;98.60
73360;DHT22;63092;43.582;19.528;2022-11-13T04:51:23;4.80;98.70
73360;DHT22;63092;43.582;19.528;2022-11-13T04:53:48;4.80;98.80
73360;DHT22;63092;43.582;19.528;2022-11-13T04:56:14;4.80;98.50
73360;DHT22;63092;43.582;19.528;2022-11-13T04:58:40;4.70;98.90
73360;DHT22;63092;43.582;19.528;2022-11-13T05:01:05;4.80;98.60
73360;DHT22;63092;43.582;19.528;2022-11-13T05:03:31;4.90;98.50
73360;DHT22;63092;43.582;19.528;2022-11-13T05:06:02;4.70;98.80
73360;DHT22;63092;43.582;19.528;2022-11-13T05:08:28;4.80;98.70
73360;DHT22;63092;43.582;19.528;2022-11-13T05:10:53;4.70;98.90
73360;DHT22;63092;43.582;19.528;2022-11-13T05:13:19;4.70;98.90
73360;DHT22;63092;43.582;19.528;2022-11-13T05:15:45;4.60;99.20
73360;DHT22;63092;43.582;19.528;2022-11-13T05:18:10;4.60;99.10
73360;DHT22;63092;43.582;19.528;2022-11-13T05:20:36;4.70;99.00
73360;DHT22;63092;43.582;19.528;2022-11-13T05:23:02;4.50;99.30
73360;DHT22;63092;43.582;19.528;2022-11-13T05:25:27;4.50;99.40
73360;DHT22;63092;43.582;19.528;2022-11-13T05:27:56;4.70;99.00
73360;DHT22;63092;43.582;19.528;2022-11-13T05:30:23;4.90;98.60
73360;DHT22;63092;43.582;19.528;2022-11-13T05:32:50;5.00;98.30
73360;DHT22;63092;43.582;19.528;2022-11-13T05:35:16;5.10;98.30
73360;DHT22;63092;43.582;19.528;2022-11-13T05:37:41;5.10;98.10
73360;DHT22;63092;43.582;19.528;2022-11-13T05:40:07;5.10;98.00
73360;DHT22;63092;43.582;19.528;2022-11-13T05:42:33;5.10;98.00
73360;DHT22;63092;43.582;19.528;2022-11-13T05:44:59;5.10;98.00
73360;DHT22;63092;43.582;19.528;2022-11-13T05:47:25;5.20;98.00
73360;DHT22;63092;43.582;19.528;2022-11-13T05:49:50;5.10;98.00
73360;DHT22;63092;43.582;19.528;2022-11-13T05:52:16;5.10;98.00
73360;DHT22;63092;43.582;19.528;2022-11-13T05:54:42;5.10;98.10
73360;DHT22;63092;43.582;19.528;2022-11-13T05:57:07;5.10;98.30
73360;DHT22;63092;43.582;19.528;2022-11-13T05:59:33;5.20;98.20
73360;DHT22;63092;43.582;19.528;2022-11-13T06:01:59;5.00;98.20
73360;DHT22;63092;43.582;19.528;2022-11-13T06:04:24;5.00;98.70
73360;DHT22;63092;43.582;19.528;2022-11-13T06:06:50;5.10;98.40
73360;DHT22;63092;43.582;19.528;2022-11-13T06:09:17;5.00;98.40
73360;DHT22;63092;43.582;19.528;2022-11-13T06:11:42;5.10;98.50
73360;DHT22;63092;43.582;19.528;2022-11-13T06:14:09;5.00;98.40
73360;DHT22;63092;43.582;19.528;2022-11-13T06:16:37;5.00;98.50
73360;DHT22;63092;43.582;19.528;2022-11-13T06:19:05;5.00;98.40
73360;DHT22;63092;43.582;19.528;2022-11-13T06:21:33;5.00;98.50
73360;DHT22;63092;43.582;19.528;2022-11-13T06:24:00;5.00;98.40
73360;DHT22;63092;43.582;19.528;2022-11-13T06:26:31;4.90;98.50
73360;DHT22;63092;43.582;19.528;2022-11-13T06:28:58;4.90;98.50
73360;DHT22;63092;43.582;19.528;2022-11-13T06:31:26;5.10;98.20
73360;DHT22;63092;43.582;19.528;2022-11-13T06:33:52;5.20;98.10
73360;DHT22;63092;43.582;19.528;2022-11-13T06:36:25;5.30;97.90
73360;DHT22;63092;43.582;19.528;2022-11-13T06:38:51;5.30;97.90
73360;DHT22;63092;43.582;19.528;2022-11-13T06:41:19;5.30;97.80
73360;DHT22;63092;43.582;19.528;2022-11-13T06:43:46;5.30;98.10
73360;DHT22;63092;43.582;19.528;2022-11-13T06:46:17;5.40;97.90
73360;DHT22;63092;43.582;19.528;2022-11-13T06:48:43;5.20;98.10
73360;DHT22;63092;43.582;19.528;2022-11-13T06:51:25;5.20;98.30
73360;DHT22;63092;43.582;19.528;2022-11-13T06:53:51;5.50;97.90
73360;DHT22;63092;43.582;19.528;2022-11-13T06:56:18;5.60;97.40
73360;DHT22;63092;43.582;19.528;2022-11-13T06:58:44;5.80;97.20
73360;DHT22;63092;43.582;19.528;2022-11-13T07:01:17;5.90;96.90
73360;DHT22;63092;43.582;19.528;2022-11-13T07:03:43;6.00;97.10
73360;DHT22;63092;43.582;19.528;2022-11-13T07:06:12;5.70;97.10
73360;DHT22;63092;43.582;19.528;2022-11-13T07:08:41;5.80;97.20
73360;DHT22;63092;43.582;19.528;2022-11-13T07:11:10;5.70;97.40
73360;DHT22;63092;43.582;19.528;2022-11-13T07:13:37;5.80;97.00
73360;DHT22;63092;43.582;19.528;2022-11-13T07:16:05;5.80;97.20
73360;DHT22;63092;43.582;19.528;2022-11-13T07:18:31;5.90;97.00
73360;DHT22;63092;43.582;19.528;2022-11-13T07:20:57;6.10;96.80
73360;DHT22;63092;43.582;19.528;2022-11-13T07:23:27;6.00;96.90
73360;DHT22;63092;43.582;19.528;2022-11-13T07:25:53;6.10;96.60
73360;DHT22;63092;43.582;19.528;2022-11-13T07:28:20;6.20;96.30
73360;DHT22;63092;43.582;19.528;2022-11-13T07:30:46;6.30;96.30
73360;DHT22;63092;43.582;19.528;2022-11-13T07:33:11;6.60;96.10
73360;DHT22;63092;43.582;19.528;2022-11-13T07:35:37;6.80;95.60
73360;DHT22;63092;43.582;19.528;2022-11-13T07:38:03;6.90;95.20
73360;DHT22;63092;43.582;19.528;2022-11-13T07:40:28;6.80;95.40
73360;DHT22;63092;43.582;19.528;2022-11-13T07:43:01;6.90;95.10
73360;DHT22;63092;43.582;19.528;2022-11-13T07:45:27;6.90;95.00
73360;DHT22;63092;43.582;19.528;2022-11-13T07:48:02;7.20;94.90
73360;DHT22;63092;43.582;19.528;2022-11-13T07:50:30;7.40;94.70
73360;DHT22;63092;43.582;19.528;2022-11-13T07:52:58;7.40;94.10
73360;DHT22;63092;43.582;19.528;2022-11-13T07:55:25;7.30;94.60
73360;DHT22;63092;43.582;19.528;2022-11-13T07:57:55;7.40;94.60
73360;DHT22;63092;43.582;19.528;2022-11-13T08:00:21;7.40;94.00
73360;DHT22;63092;43.582;19.528;2022-11-13T08:02:47;7.60;94.10
73360;DHT22;63092;43.582;19.528;2022-11-13T08:05:13;7.70;94.00
73360;DHT22;63092;43.582;19.528;2022-11-13T08:07:39;7.90;93.60
73360;DHT22;63092;43.582;19.528;2022-11-13T08:10:06;8.00;93.30
73360;DHT22;63092;43.582;19.528;2022-11-13T08:12:31;8.00;93.10
73360;DHT22;63092;43.582;19.528;2022-11-13T08:14:57;7.90;92.90
73360;DHT22;63092;43.582;19.528;2022-11-13T08:17:23;7.90;93.20
73360;DHT22;63092;43.582;19.528;2022-11-13T08:19:49;8.00;93.20
73360;DHT22;63092;43.582;19.528;2022-11-13T08:22:14;8.00;93.30
73360;DHT22;63092;43.582;19.528;2022-11-13T08:24:40;8.10;93.50
73360;DHT22;63092;43.582;19.528;2022-11-13T08:27:06;8.20;93.20
73360;DHT22;63092;43.582;19.528;2022-11-13T08:29:32;8.20;93.00
73360;DHT22;63092;43.582;19.528;2022-11-13T08:31:57;8.20;93.00
73360;DHT22;63092;43.582;19.528;2022-11-13T08:34:23;8.30;92.90
73360;DHT22;63092;43.582;19.528;2022-11-13T08:36:49;8.50;92.40
73360;DHT22;63092;43.582;19.528;2022-11-13T08:39:15;8.50;92.30
73360;DHT22;63092;43.582;19.528;2022-11-13T08:41:40;8.50;92.40
73360;DHT22;63092;43.582;19.528;2022-11-13T08:44:06;8.50;92.50
73360;DHT22;63092;43.582;19.528;2022-11-13T08:46:32;8.60;92.30
73360;DHT22;63092;43.582;19.528;2022-11-13T08:48:58;8.60;92.30
73360;DHT22;63092;43.582;19.528;2022-11-13T08:51:23;8.60;92.50
73360;DHT22;63092;43.582;19.528;2022-11-13T08:53:49;8.60;92.80
73360;DHT22;63092;43.582;19.528;2022-11-13T08:56:15;8.70;92.70
73360;DHT22;63092;43.582;19.528;2022-11-13T08:58:40;8.80;92.40
73360;DHT22;63092;43.582;19.528;2022-11-13T09:01:06;8.80;92.50
73360;DHT22;63092;43.582;19.528;2022-11-13T09:03:32;8.80;92.60
73360;DHT22;63092;43.582;19.528;2022-11-13T09:06:03;8.80;92.70
73360;DHT22;63092;43.582;19.528;2022-11-13T09:08:29;8.70;92.70
73360;DHT22;63092;43.582;19.528;2022-11-13T09:10:56;8.80;92.80
73360;DHT22;63092;43.582;19.528;2022-11-13T09:13:22;8.90;92.70
73360;DHT22;63092;43.582;19.528;2022-11-13T09:15:47;8.90;92.60
73360;DHT22;63092;43.582;19.528;2022-11-13T09:18:13;9.00;92.50
73360;DHT22;63092;43.582;19.528;2022-11-13T09:20:39;9.20;92.10
73360;DHT22;63092;43.582;19.528;2022-11-13T09:23:06;9.30;92.10
73360;DHT22;63092;43.582;19.528;2022-11-13T09:25:35;9.40;91.80
73360;DHT22;63092;43.582;19.528;2022-11-13T09:28:02;9.40;91.40
73360;DHT22;63092;43.582;19.528;2022-11-13T09:30:29;9.60;91.30
73360;DHT22;63092;43.582;19.528;2022-11-13T09:32:56;9.80;91.50
73360;DHT22;63092;43.582;19.528;2022-11-13T09:35:24;9.80;90.90
73360;DHT22;63092;43.582;19.528;2022-11-13T09:38:00;10.00;90.90
73360;DHT22;63092;43.582;19.528;2022-11-13T09:40:35;10.10;90.60
73360;DHT22;63092;43.582;19.528;2022-11-13T09:43:05;10.40;90.40
73360;DHT22;63092;43.582;19.528;2022-11-13T09:45:31;10.40;90.60
73360;DHT22;63092;43.582;19.528;2022-11-13T09:50:46;10.70;90.20
73360;DHT22;63092;43.582;19.528;2022-11-13T09:53:12;10.70;88.90
73360;DHT22;63092;43.582;19.528;2022-11-13T09:55:44;10.90;88.50
73360;DHT22;63092;43.582;19.528;2022-11-13T09:58:26;11.00;88.00
73360;DHT22;63092;43.582;19.528;2022-11-13T10:00:53;11.00;88.10
73360;DHT22;63092;43.582;19.528;2022-11-13T10:03:29;11.00;88.30
73360;DHT22;63092;43.582;19.528;2022-11-13T10:06:19;11.00;88.90
73360;DHT22;63092;43.582;19.528;2022-11-13T10:09:00;11.00;88.40
73360;DHT22;63092;43.582;19.528;2022-11-13T10:11:38;10.90;88.10
73360;DHT22;63092;43.582;19.528;2022-11-13T10:14:44;10.80;88.90
73360;DHT22;63092;43.582;19.528;2022-11-13T10:20:51;11.00;89.50
73360;DHT22;63092;43.582;19.528;2022-11-13T10:23:15;11.00;89.90
73360;DHT22;63092;43.582;19.528;2022-11-13T10:25:40;11.10;89.70
73360;DHT22;63092;43.582;19.528;2022-11-13T10:28:19;11.00;88.30
73360;DHT22;63092;43.582;19.528;2022-11-13T10:34:03;11.30;86.90
73360;DHT22;63092;43.582;19.528;2022-11-13T10:36:43;11.50;85.90
73360;DHT22;63092;43.582;19.528;2022-11-13T10:39:13;11.60;84.30
73360;DHT22;63092;43.582;19.528;2022-11-13T10:44:27;11.90;83.80
73360;DHT22;63092;43.582;19.528;2022-11-13T10:47:16;12.00;82.40
73360;DHT22;63092;43.582;19.528;2022-11-13T10:49:42;12.10;81.50
73360;DHT22;63092;43.582;19.528;2022-11-13T10:52:18;12.20;82.20
73360;DHT22;63092;43.582;19.528;2022-11-13T10:54:44;12.20;81.90
73360;DHT22;63092;43.582;19.528;2022-11-13T10:59:47;12.30;82.80
73360;DHT22;63092;43.582;19.528;2022-11-13T11:02:22;12.40;82.80
73360;DHT22;63092;43.582;19.528;2022-11-13T11:04:48;12.50;82.70
73360;DHT22;63092;43.582;19.528;2022-11-13T11:07:17;12.50;81.40
73360;DHT22;63092;43.582;19.528;2022-11-13T11:09:44;12.60;81.00
73360;DHT22;63092;43.582;19.528;2022-11-13T11:15:22;12.80;79.70
73360;DHT22;63092;43.582;19.528;2022-11-13T11:20:27;13.00;79.90
73360;DHT22;63092;43.582;19.528;2022-11-13T11:23:20;13.10;79.80
73360;DHT22;63092;43.582;19.528;2022-11-13T11:26:02;13.10;78.60
73360;DHT22;63092;43.582;19.528;2022-11-13T11:28:44;13.20;78.30
73360;DHT22;63092;43.582;19.528;2022-11-13T11:31:29;13.30;78.30
73360;DHT22;63092;43.582;19.528;2022-11-13T11:34:11;13.40;78.10
73360;DHT22;63092;43.582;19.528;2022-11-13T11:47:39;13.80;76.90
73360;DHT22;63092;43.582;19.528;2022-11-13T11:50:13;13.90;75.70
73360;DHT22;63092;43.582;19.528;2022-11-13T11:53:11;13.90;74.40
73360;DHT22;63092;43.582;19.528;2022-11-13T12:00:50;14.30;75.00
73360;DHT22;63092;43.582;19.528;2022-11-13T12:06:27;14.20;75.10
73360;DHT22;63092;43.582;19.528;2022-11-13T12:09:37;14.30;75.40
73360;DHT22;63092;43.582;19.528;2022-11-13T12:12:08;14.40;74.50
73360;DHT22;63092;43.582;19.528;2022-11-13T12:14:45;14.50;74.80
73360;DHT22;63092;43.582;19.528;2022-11-13T12:17:50;14.50;76.10
73360;DHT22;63092;43.582;19.528;2022-11-13T12:23:18;14.40;76.10
73360;DHT22;63092;43.582;19.528;2022-11-13T12:25:59;14.40;76.20
73360;DHT22;63092;43.582;19.528;2022-11-13T12:28:41;14.40;75.30
73360;DHT22;63092;43.582;19.528;2022-11-13T12:36:46;14.30;76.70
73360;DHT22;63092;43.582;19.528;2022-11-13T12:39:40;14.40;76.70
73360;DHT22;63092;43.582;19.528;2022-11-13T12:45:55;14.30;76.40
73360;DHT22;63092;43.582;19.528;2022-11-13T12:50:58;14.30;75.50
73360;DHT22;63092;43.582;19.528;2022-11-13T12:53:27;14.30;76.10
73360;DHT22;63092;43.582;19.528;2022-11-13T12:55:58;14.30;76.70
73360;DHT22;63092;43.582;19.528;2022-11-13T12:58:27;14.40;75.30
73360;DHT22;63092;43.582;19.528;2022-11-13T13:01:15;14.50;75.30
73360;DHT22;63092;43.582;19.528;2022-11-13T13:04:13;14.50;74.50
73360;DHT22;63092;43.582;19.528;2022-11-13T13:18:26;14.70;72.80
73360;DHT22;63092;43.582;19.528;2022-11-13T13:21:01;14.70;73.50
73360;DHT22;63092;43.582;19.528;2022-11-13T13:23:40;14.60;75.30
73360;DHT22;63092;43.582;19.528;2022-11-13T13:28:39;14.40;76.70
73360;DHT22;63092;43.582;19.528;2022-11-13T13:47:51;14.30;76.50
73360;DHT22;63092;43.582;19.528;2022-11-13T13:50:31;14.30;76.40
73360;DHT22;63092;43.582;19.528;2022-11-13T13:52:58;14.20;79.40
73360;DHT22;63092;43.582;19.528;2022-11-13T13:55:30;14.10;80.20
73360;DHT22;63092;43.582;19.528;2022-11-13T13:57:57;14.10;80.40
73360;DHT22;63092;43.582;19.528;2022-11-13T14:00:24;14.10;81.20
73360;DHT22;63092;43.582;19.528;2022-11-13T14:02:51;14.10;80.90
73360;DHT22;63092;43.582;19.528;2022-11-13T14:05:30;14.10;80.70
73360;DHT22;63092;43.582;19.528;2022-11-13T14:07:57;14.10;81.30
73360;DHT22;63092;43.582;19.528;2022-11-13T14:10:25;14.00;82.00
73360;DHT22;63092;43.582;19.528;2022-11-13T14:12:54;14.00;82.50
73360;DHT22;63092;43.582;19.528;2022-11-13T14:17:48;13.90;82.60
73360;DHT22;63092;43.582;19.528;2022-11-13T14:20:14;13.90;83.00
73360;DHT22;63092;43.582;19.528;2022-11-13T14:22:42;13.90;83.20
73360;DHT22;63092;43.582;19.528;2022-11-13T14:25:18;13.90;84.20
73360;DHT22;63092;43.582;19.528;2022-11-13T14:27:45;13.90;84.10
73360;DHT22;63092;43.582;19.528;2022-11-13T14:30:26;13.90;85.90
73360;DHT22;63092;43.582;19.528;2022-11-13T14:32:52;13.90;85.90
73360;DHT22;63092;43.582;19.528;2022-11-13T14:35:24;13.90;85.50
73360;DHT22;63092;43.582;19.528;2022-11-13T14:37:52;13.90;85.80
73360;DHT22;63092;43.582;19.528;2022-11-13T14:42:48;13.90;87.00
73360;DHT22;63092;43.582;19.528;2022-11-13T14:45:26;13.90;87.20
73360;DHT22;63092;43.582;19.528;2022-11-13T14:50:34;13.80;88.80
73360;DHT22;63092;43.582;19.528;2022-11-13T14:53:03;13.70;89.80
73360;DHT22;63092;43.582;19.528;2022-11-13T14:55:36;13.70;89.50
73360;DHT22;63092;43.582;19.528;2022-11-13T14:58:03;13.70;90.50
73360;DHT22;63092;43.582;19.528;2022-11-13T15:00:38;13.70;90.10
73360;DHT22;63092;43.582;19.528;2022-11-13T15:03:05;13.70;90.00
73360;DHT22;63092;43.582;19.528;2022-11-13T15:05:31;13.70;90.00
73360;DHT22;63092;43.582;19.528;2022-11-13T15:07:58;13.70;89.80
73360;DHT22;63092;43.582;19.528;2022-11-13T15:10:27;13.70;89.80
73360;DHT22;63092;43.582;19.528;2022-11-13T15:12:54;13.70;89.50
73360;DHT22;63092;43.582;19.528;2022-11-13T15:15:22;13.80;89.50
73360;DHT22;63092;43.582;19.528;2022-11-13T15:17:50;13.70;88.70
73360;DHT22;63092;43.582;19.528;2022-11-13T15:20:23;13.70;89.40
73360;DHT22;63092;43.582;19.528;2022-11-13T15:22:50;13.70;89.10
73360;DHT22;63092;43.582;19.528;2022-11-13T15:25:21;13.70;90.20
73360;DHT22;63092;43.582;19.528;2022-11-13T15:27:47;13.60;89.80
73360;DHT22;63092;43.582;19.528;2022-11-13T15:30:13;13.60;89.70
73360;DHT22;63092;43.582;19.528;2022-11-13T15:32:39;13.50;89.20
73360;DHT22;63092;43.582;19.528;2022-11-13T15:35:09;13.50;88.40
73360;DHT22;63092;43.582;19.528;2022-11-13T15:37:35;13.50;89.20
73360;DHT22;63092;43.582;19.528;2022-11-13T15:40:01;13.50;89.70
73360;DHT22;63092;43.582;19.528;2022-11-13T15:42:31;13.50;89.40
73360;DHT22;63092;43.582;19.528;2022-11-13T15:44:57;13.50;89.20
73360;DHT22;63092;43.582;19.528;2022-11-13T15:47:34;13.50;89.20
73360;DHT22;63092;43.582;19.528;2022-11-13T15:50:00;13.40;89.40
73360;DHT22;63092;43.582;19.528;2022-11-13T15:52:31;13.40;89.40
73360;DHT22;63092;43.582;19.528;2022-11-13T15:55:00;13.40;88.90
73360;DHT22;63092;43.582;19.528;2022-11-13T15:57:29;13.40;89.30
73360;DHT22;63092;43.582;19.528;2022-11-13T15:59:55;13.40;89.10
73360;DHT22;63092;43.582;19.528;2022-11-13T16:02:20;13.40;89.80
73360;DHT22;63092;43.582;19.528;2022-11-13T16:04:47;13.30;90.10
73360;DHT22;63092;43.582;19.528;2022-11-13T16:07:16;13.30;90.00
73360;DHT22;63092;43.582;19.528;2022-11-13T16:09:43;13.30;90.20
73360;DHT22;63092;43.582;19.528;2022-11-13T16:12:10;13.30;90.90
73360;DHT22;63092;43.582;19.528;2022-11-13T16:14:37;13.20;90.80
73360;DHT22;63092;43.582;19.528;2022-11-13T16:17:08;13.20;90.90
73360;DHT22;63092;43.582;19.528;2022-11-13T16:19:36;13.10;90.80
73360;DHT22;63092;43.582;19.528;2022-11-13T16:22:02;13.20;90.90
73360;DHT22;63092;43.582;19.528;2022-11-13T16:24:28;13.10;90.70
73360;DHT22;63092;43.582;19.528;2022-11-13T16:26:56;13.10;90.70
73360;DHT22;63092;43.582;19.528;2022-11-13T16:29:22;13.10;90.70
73360;DHT22;63092;43.582;19.528;2022-11-13T16:31:48;13.00;91.20
73360;DHT22;63092;43.582;19.528;2022-11-13T16:34:14;13.00;91.50
73360;DHT22;63092;43.582;19.528;2022-11-13T16:36:40;13.00;91.50
73360;DHT22;63092;43.582;19.528;2022-11-13T16:39:12;12.90;91.30
73360;DHT22;63092;43.582;19.528;2022-11-13T16:41:39;12.90;91.50
73360;DHT22;63092;43.582;19.528;2022-11-13T16:44:04;12.90;91.60
73360;DHT22;63092;43.582;19.528;2022-11-13T16:46:32;12.90;91.70
73360;DHT22;63092;43.582;19.528;2022-11-13T16:48:59;12.80;91.90
73360;DHT22;63092;43.582;19.528;2022-11-13T16:51:25;12.80;92.00
73360;DHT22;63092;43.582;19.528;2022-11-13T16:53:51;12.70;92.10
73360;DHT22;63092;43.582;19.528;2022-11-13T16:56:19;12.60;92.20
73360;DHT22;63092;43.582;19.528;2022-11-13T16:58:46;12.50;92.20
73360;DHT22;63092;43.582;19.528;2022-11-13T17:01:17;12.40;92.50
73360;DHT22;63092;43.582;19.528;2022-11-13T17:03:43;12.30;92.50
73360;DHT22;63092;43.582;19.528;2022-11-13T17:08:44;12.30;92.30
73360;DHT22;63092;43.582;19.528;2022-11-13T17:11:12;12.30;92.40
73360;DHT22;63092;43.582;19.528;2022-11-13T17:13:38;12.30;92.40
73360;DHT22;63092;43.582;19.528;2022-11-13T17:16:04;12.20;92.40
73360;DHT22;63092;43.582;19.528;2022-11-13T17:18:29;12.10;92.50
73360;DHT22;63092;43.582;19.528;2022-11-13T17:20:55;12.10;92.60